Time;durP1;ratioP1;P1;durP2;ratioP2;P2;SDS_P1;SDS_P2;PMS_P1;PMS_P2;Temp;Humidity;BMP_temperature;BMP_pressure;BME280_temperature;BME280_humidity;BME280_pressure;Samples;Min_cycle;Max_cycle;Signal;HPM_P1;HPM_P2
2021/12/11 00:01:25;;;;;;;0.00;0.00;;;;;18.10;100099.00;;;;4889509;29;20143;-74
2021/12/11 00:04:00;;;;;;;0.00;0.00;;;;;18.10;100123.00;;;;4875908;29;20679;-74
2021/12/11 00:06:36;;;;;;;0.00;0.00;;;;;18.10;100109.00;;;;4897714;29;20536;-72
2021/12/11 00:09:27;;;;;;;0.00;0.00;;;;;17.90;100114.00;;;;4875814;29;20045;-73
2021/12/11 00:12:02;;;;;;;;;;;;;17.90;100136.00;;;;4876255;29;20080;-73
2021/12/11 00:14:35;;;;;;;0.00;0.00;;;;;17.90;100123.00;;;;4876154;29;19933;-73
2021/12/11 00:17:05;;;;;;;0.00;0.00;;;;;17.80;100145.00;;;;4875847;29;20083;-73
2021/12/11 00:19:38;;;;;;;2.83;0.40;;;;;17.80;100140.00;;;;4875792;29;20079;-74
2021/12/11 00:22:14;;;;;;;0.05;0.05;;;;;18.00;100114.00;;;;4874648;29;20052;-73
2021/12/11 00:24:44;;;;;;;0.00;0.00;;;;;17.80;100116.00;;;;4874698;29;20085;-73
2021/12/11 00:27:28;;;;;;;0.00;0.00;;;;;17.80;100135.00;;;;4875684;29;20057;-73
2021/12/11 00:29:58;;;;;;;0.00;0.00;;;;;17.80;100146.00;;;;4858754;29;20616;-73
2021/12/11 00:32:33;;;;;;;0.10;0.10;;;;;17.50;100115.00;;;;4874621;29;20052;-73
2021/12/11 00:35:08;;;;;;;0.68;0.47;;;;;17.60;100143.00;;;;4874742;29;20072;-73
2021/12/11 00:37:39;;;;;;;4.20;0.70;;;;;17.30;100145.00;;;;4875059;29;20080;-73
2021/12/11 00:40:23;;;;;;;0.08;0.05;;;;;17.20;100143.00;;;;4875440;29;20469;-73
2021/12/11 00:42:59;;;;;;;0.28;0.28;;;;;17.30;100135.00;;;;4888805;29;20478;-73
2021/12/11 00:45:36;;;;;;;0.00;0.00;;;;;17.10;100131.00;;;;4875629;29;20211;-73
2021/12/11 00:48:10;;;;;;;0.00;0.00;;;;;17.00;100131.00;;;;4874870;29;20052;-72
2021/12/11 00:50:42;;;;;;;0.00;0.00;;;;;17.00;100138.00;;;;4874031;29;20522;-73
2021/12/11 00:53:19;;;;;;;0.00;0.00;;;;;17.20;100112.00;;;;4874228;29;20642;-74
2021/12/11 00:55:56;;;;;;;0.00;0.00;;;;;17.30;100131.00;;;;4876106;29;20049;-74
2021/12/11 00:58:30;;;;;;;0.40;0.40;;;;;17.50;100128.00;;;;4876301;29;20730;-73
2021/12/11 01:01:21;;;;;;;4.65;2.10;;;;;17.60;100135.00;;;;4872574;29;20075;-74
2021/12/11 01:03:54;;;;;;;0.15;0.15;;;;;17.70;100113.00;;;;4888560;29;20041;-75
2021/12/11 01:06:34;;;;;;;0.00;0.00;;;;;17.70;100108.00;;;;4874842;29;20045;-74
2021/12/11 01:09:15;;;;;;;0.43;0.22;;;;;17.60;100095.00;;;;4889038;29;20112;-73
2021/12/11 01:11:54;;;;;;;0.20;0.20;;;;;17.60;100114.00;;;;4874643;29;20073;-74
2021/12/11 01:14:53;;;;;;;0.28;0.22;;;;;17.50;100100.00;;;;4875125;29;20081;-73
2021/12/11 01:17:43;;;;;;;0.10;0.10;;;;;17.60;100104.00;;;;4871124;29;20148;-73
2021/12/11 01:20:34;;;;;;;0.00;0.00;;;;;17.50;100086.00;;;;4874529;29;20061;-73
2021/12/11 01:23:29;;;;;;;0.00;0.00;;;;;17.50;100102.00;;;;4874328;29;20584;-73
2021/12/11 01:26:00;;;;;;;0.00;0.00;;;;;17.50;100122.00;;;;4874686;29;20136;-73
2021/12/11 01:28:30;;;;;;;0.00;0.00;;;;;17.60;100120.00;;;;4874438;29;20588;-73
2021/12/11 01:31:01;;;;;;;0.00;0.00;;;;;17.50;100132.00;;;;4874589;29;20147;-74
2021/12/11 01:33:32;;;;;;;0.00;0.00;;;;;17.40;100110.00;;;;4873958;29;20565;-74
2021/12/11 01:36:05;;;;;;;0.00;0.00;;;;;17.30;100124.00;;;;4874861;29;20508;-74
2021/12/11 01:38:35;;;;;;;0.00;0.00;;;;;17.20;100103.00;;;;4874819;29;20539;-74
2021/12/11 01:41:19;;;;;;;0.00;0.00;;;;;17.00;100097.00;;;;4874181;29;20053;-74
2021/12/11 01:43:53;;;;;;;0.00;0.00;;;;;17.00;100106.00;;;;4874140;29;20187;-74
2021/12/11 01:46:26;;;;;;;0.00;0.00;;;;;16.90;100086.00;;;;4874435;29;20390;-73
2021/12/11 01:49:03;;;;;;;0.00;0.00;;;;;16.90;100105.00;;;;4874287;29;20049;-72
2021/12/11 01:51:57;;;;;;;0.00;0.00;;;;;16.70;100103.00;;;;4873803;29;20468;-73
2021/12/11 01:54:34;;;;;;;0.00;0.00;;;;;16.80;100069.00;;;;4874013;29;20130;-73
2021/12/11 01:57:20;;;;;;;0.00;0.00;;;;;16.70;100089.00;;;;4874305;29;20097;-73
2021/12/11 01:59:56;;;;;;;0.17;0.15;;;;;16.50;100097.00;;;;4873398;29;20128;-72
2021/12/11 02:02:37;;;;;;;0.00;0.00;;;;;16.40;100093.00;;;;4874281;29;20047;-73
2021/12/11 02:05:10;;;;;;;0.00;0.00;;;;;16.30;100060.00;;;;4873631;29;20076;-73
2021/12/11 02:07:46;;;;;;;0.00;0.00;;;;;16.20;100062.00;;;;4874045;29;20069;-74
2021/12/11 02:10:34;;;;;;;0.00;0.00;;;;;16.20;100062.00;;;;4887546;29;20057;-74
2021/12/11 02:13:08;;;;;;;0.00;0.00;;;;;16.30;100097.00;;;;4888140;29;20041;-73
2021/12/11 02:15:46;;;;;;;0.00;0.00;;;;;16.40;100105.00;;;;4873829;29;20129;-75
2021/12/11 02:18:33;;;;;;;0.45;0.45;;;;;16.70;100084.00;;;;4874289;29;20051;-73
2021/12/11 02:21:29;;;;;;;0.00;0.00;;;;;16.70;100077.00;;;;4873815;29;20128;-75
2021/12/11 02:24:03;;;;;;;0.00;0.00;;;;;16.50;100059.00;;;;4867084;29;20080;-74
2021/12/11 02:26:36;;;;;;;0.00;0.00;;;;;16.70;100108.00;;;;4874065;29;20057;-74
2021/12/11 02:29:24;;;;;;;0.00;0.00;;;;;16.80;100092.00;;;;4873582;29;20675;-72
2021/12/11 02:32:04;;;;;;;1.02;0.22;;;;;16.70;100091.00;;;;4873703;29;20045;-73
2021/12/11 02:34:36;;;;;;;0.00;0.00;;;;;16.80;100082.00;;;;4887359;29;20521;-73
2021/12/11 02:37:18;;;;;;;0.00;0.00;;;;;16.90;100054.00;;;;4873942;29;20056;-73
2021/12/11 02:40:00;;;;;;;0.00;0.00;;;;;16.80;100055.00;;;;4873372;29;20148;-73
2021/12/11 02:42:50;;;;;;;1.08;0.40;;;;;16.90;100073.00;;;;4872873;29;20053;-73
2021/12/11 02:45:36;;;;;;;0.00;0.00;;;;;16.90;100064.00;;;;4887936;29;20731;-73
2021/12/11 02:48:12;;;;;;;0.00;0.00;;;;;16.90;100060.00;;;;4873337;29;20056;-73
2021/12/11 02:50:48;;;;;;;0.00;0.00;;;;;16.70;100031.00;;;;4873157;29;20704;-74
2021/12/11 02:53:43;;;;;;;0.00;0.00;;;;;16.70;100057.00;;;;4874018;29;20140;-73
2021/12/11 02:56:32;;;;;;;0.00;0.00;;;;;16.60;100019.00;;;;4872520;29;20140;-73
2021/12/11 02:59:12;;;;;;;0.00;0.00;;;;;16.50;100038.00;;;;4873744;29;20045;-73
2021/12/11 03:01:49;;;;;;;0.00;0.00;;;;;16.30;100014.00;;;;4873704;29;20128;-72
2021/12/11 03:04:33;;;;;;;0.00;0.00;;;;;16.20;100033.00;;;;4873244;29;20045;-73
2021/12/11 03:07:08;;;;;;;0.00;0.00;;;;;16.10;100011.00;;;;4873058;29;20128;-72
2021/12/11 03:09:44;;;;;;;0.00;0.00;;;;;16.00;100034.00;;;;4873285;29;20494;-73
2021/12/11 03:12:15;;;;;;;0.65;0.65;;;;;15.90;100025.00;;;;4872382;29;20076;-73
2021/12/11 03:14:46;;;;;;;0.00;0.00;;;;;15.80;100016.00;;;;4872832;29;20057;-74
2021/12/11 03:17:19;;;;;;;0.00;0.00;;;;;15.80;100003.00;;;;4873235;29;20587;-73
2021/12/11 03:19:51;;;;;;;0.00;0.00;;;;;15.70;99987.00;;;;4873636;29;20040;-73
2021/12/11 03:22:27;;;;;;;0.00;0.00;;;;;15.60;100016.00;;;;4873212;29;20135;-74
2021/12/11 03:24:59;;;;;;;0.00;0.00;;;;;15.60;100003.00;;;;4873124;29;20545;-74
2021/12/11 03:27:28;;;;;;;;;;;;;15.60;100010.00;;;;4887376;29;20101;-74
2021/12/11 03:29:57;;;;;;;0.00;0.00;;;;;15.60;99988.00;;;;4872879;29;19923;-74
2021/12/11 03:32:27;;;;;;;0.00;0.00;;;;;15.60;99981.00;;;;4872772;29;20101;-74
2021/12/11 03:34:57;;;;;;;0.00;0.00;;;;;15.60;100008.00;;;;4872764;29;20064;-74
2021/12/11 03:37:27;;;;;;;0.10;0.10;;;;;15.70;99986.00;;;;4872776;29;20462;-74
2021/12/11 03:39:56;;;;;;;0.00;0.00;;;;;15.70;99969.00;;;;4886809;29;20053;-74
2021/12/11 03:42:30;;;;;;;0.00;0.00;;;;;15.70;99964.00;;;;4887062;29;20532;-74
2021/12/11 03:45:01;;;;;;;0.00;0.00;;;;;15.70;99991.00;;;;4872864;29;20038;-74
2021/12/11 03:47:34;;;;;;;0.00;0.00;;;;;15.70;99970.00;;;;4873003;29;20068;-74
2021/12/11 03:50:07;;;;;;;0.00;0.00;;;;;15.70;99975.00;;;;4872528;29;20125;-74
2021/12/11 03:52:38;;;;;;;0.00;0.00;;;;;15.70;99995.00;;;;4872987;29;20781;-74
2021/12/11 03:55:09;;;;;;;0.00;0.00;;;;;15.70;100004.00;;;;4872571;29;20049;-74
2021/12/11 03:57:39;;;;;;;0.00;0.00;;;;;15.60;99981.00;;;;4886899;29;20481;-74
2021/12/11 04:00:14;;;;;;;0.10;0.10;;;;;15.60;99967.00;;;;4872784;29;20055;-74
2021/12/11 04:02:44;;;;;;;0.00;0.00;;;;;15.60;99993.00;;;;4872629;29;20045;-74
2021/12/11 04:05:14;;;;;;;0.00;0.00;;;;;15.40;99997.00;;;;4872870;29;20053;-74
2021/12/11 04:07:47;;;;;;;0.00;0.00;;;;;15.40;99981.00;;;;4872663;29;20598;-73
2021/12/11 04:10:19;;;;;;;0.00;0.00;;;;;15.30;99977.00;;;;4872428;29;20056;-73
2021/12/11 04:12:49;;;;;;;0.00;0.00;;;;;15.20;99972.00;;;;4873257;29;20105;-74
2021/12/11 04:15:19;;;;;;;0.30;0.15;;;;;15.10;99963.00;;;;4872974;29;20466;-75
2021/12/11 04:17:48;;;;;;;0.00;0.00;;;;;15.10;99965.00;;;;4872130;29;20109;-74
2021/12/11 04:20:20;;;;;;;0.00;0.00;;;;;15.00;99986.00;;;;4872611;29;20053;-74
2021/12/11 04:22:50;;;;;;;0.00;0.00;;;;;15.10;99946.00;;;;4872407;29;20079;-73
2021/12/11 04:25:22;;;;;;;0.00;0.00;;;;;15.10;99950.00;;;;4875633;29;20057;-74
2021/12/11 04:27:57;;;;;;;0.00;0.00;;;;;15.10;99927.00;;;;4874972;29;20131;-73
2021/12/11 04:30:27;;;;;;;0.00;0.00;;;;;15.10;99951.00;;;;4876096;29;20060;-74
2021/12/11 04:32:59;;;;;;;0.00;0.00;;;;;14.90;99920.00;;;;4875529;29;20509;-74
2021/12/11 04:35:30;;;;;;;0.00;0.00;;;;;15.00;99924.00;;;;4874472;29;20053;-75
2021/12/11 04:38:04;;;;;;;0.00;0.00;;;;;15.00;99899.00;;;;4875585;29;20084;-73
2021/12/11 04:40:37;;;;;;;0.00;0.00;;;;;14.90;99894.00;;;;4875618;29;20065;-74
2021/12/11 04:43:14;;;;;;;0.00;0.00;;;;;14.90;99892.00;;;;4875729;29;20081;-74
2021/12/11 04:45:52;;;;;;;0.00;0.00;;;;;14.90;99918.00;;;;4875477;29;20053;-74
2021/12/11 04:51:26;;;;;;;0.00;0.00;;;;;14.80;99913.00;;;;4875865;29;20049;-74
2021/12/11 04:54:31;;;;;;;0.00;0.00;;;;;14.70;99899.00;;;;4875079;29;20049;-74
2021/12/11 04:59:50;;;;;;;0.00;0.00;;;;;14.60;99889.00;;;;4879457;29;20405;-74
2021/12/11 05:07:42;;;;;;;0.00;0.00;;;;;14.40;99885.00;;;;4875039;29;20339;-74
2021/12/11 05:10:32;;;;;;;3.20;0.30;;;;;14.40;99874.00;;;;4874870;29;20511;-73
2021/12/11 05:13:01;;;;;;;0.00;0.00;;;;;14.40;99891.00;;;;4875186;29;20049;-73
2021/12/11 05:15:41;;;;;;;0.00;0.00;;;;;14.30;99873.00;;;;4874741;29;20463;-74
2021/12/11 05:18:14;;;;;;;0.10;0.10;;;;;14.30;99863.00;;;;4874605;29;20049;-74
2021/12/11 05:20:49;;;;;;;0.00;0.00;;;;;14.30;99873.00;;;;4874905;29;20063;-73
2021/12/11 05:23:19;;;;;;;0.00;0.00;;;;;14.30;99852.00;;;;4874098;29;20140;-74
2021/12/11 05:25:49;;;;;;;0.30;0.20;;;;;14.40;99845.00;;;;4874688;29;20160;-74
2021/12/11 05:28:19;;;;;;;0.22;0.10;;;;;14.40;99865.00;;;;4874615;29;20060;-75
2021/12/11 05:30:52;;;;;;;0.00;0.00;;;;;14.40;99873.00;;;;4874908;29;20053;-75
2021/12/11 05:33:24;;;;;;;0.00;0.00;;;;;14.30;99888.00;;;;4874465;29;20057;-74
2021/12/11 05:35:55;;;;;;;0.00;0.00;;;;;14.30;99888.00;;;;4873607;29;20052;-75
2021/12/11 05:38:27;;;;;;;0.75;0.22;;;;;14.40;99883.00;;;;4874827;29;20049;-74
2021/12/11 05:41:02;;;;;;;0.00;0.00;;;;;14.50;99899.00;;;;4873133;29;20577;-74
2021/12/11 05:43:32;;;;;;;0.00;0.00;;;;;14.50;99869.00;;;;4874785;29;20052;-74
2021/12/11 05:46:04;;;;;;;0.00;0.00;;;;;14.50;99912.00;;;;4874092;29;20049;-74
2021/12/11 05:48:34;;;;;;;0.00;0.00;;;;;14.40;99905.00;;;;4874742;29;20109;-74
2021/12/11 05:51:06;;;;;;;0.03;0.03;;;;;14.40;99910.00;;;;4873366;29;20131;-73
2021/12/11 05:53:36;;;;;;;0.00;0.00;;;;;14.40;99890.00;;;;4874434;29;20470;-73
2021/12/11 05:56:11;;;;;;;3.40;1.13;;;;;14.40;99887.00;;;;4874358;29;20049;-73
2021/12/11 06:01:24;;;;;;;0.40;0.40;;;;;14.50;99906.00;;;;4873603;29;20049;-74
2021/12/11 06:04:04;;;;;;;0.00;0.00;;;;;14.50;99895.00;;;;4874028;29;20051;-74
2021/12/11 06:06:35;;;;;;;0.00;0.00;;;;;14.50;99886.00;;;;4888395;29;20045;-73
2021/12/11 06:09:07;;;;;;;0.00;0.00;;;;;14.50;99877.00;;;;4874171;29;20042;-72
2021/12/11 06:11:39;;;;;;;0.00;0.00;;;;;14.60;99882.00;;;;4873437;29;20037;-74
2021/12/11 06:14:08;;;;;;;;;;;;;14.70;99901.00;;;;4874726;29;20643;-73
2021/12/11 06:16:37;;;;;;;0.00;0.00;;;;;14.70;99878.00;;;;4873513;29;20292;-74
2021/12/11 06:19:07;;;;;;;0.00;0.00;;;;;14.80;99897.00;;;;4874274;29;20045;-73
2021/12/11 06:21:37;;;;;;;0.00;0.00;;;;;14.80;99886.00;;;;4874225;29;20128;-73
2021/12/11 06:24:07;;;;;;;0.00;0.00;;;;;14.80;99894.00;;;;4888083;29;20470;-73
2021/12/11 06:26:36;;;;;;;0.00;0.00;;;;;14.80;99889.00;;;;4873063;29;20508;-73
2021/12/11 06:29:06;;;;;;;0.00;0.00;;;;;14.80;99875.00;;;;4873808;29;20053;-73
2021/12/11 06:31:35;;;;;;;0.10;0.10;;;;;14.80;99880.00;;;;4873643;29;20057;-74
2021/12/11 06:34:05;;;;;;;0.00;0.00;;;;;14.90;99886.00;;;;4873579;29;20065;-74
2021/12/11 06:36:34;;;;;;;0.00;0.00;;;;;14.90;99885.00;;;;4873153;29;20108;-74
2021/12/11 06:39:11;;;;;;;0.00;0.00;;;;;14.90;99875.00;;;;4873029;29;20041;-74
2021/12/11 06:41:44;;;;;;;0.00;0.00;;;;;15.00;99887.00;;;;4873559;29;20125;-74
2021/12/11 06:44:14;;;;;;;0.00;0.00;;;;;14.90;99897.00;;;;4873684;29;20109;-73
2021/12/11 06:46:44;;;;;;;0.00;0.00;;;;;14.90;99879.00;;;;4888105;29;20359;-74
2021/12/11 06:49:14;;;;;;;0.00;0.00;;;;;14.90;99902.00;;;;4872220;29;20143;-74
2021/12/11 06:51:43;;;;;;;0.00;0.00;;;;;14.90;99898.00;;;;4873283;29;20044;-73
2021/12/11 06:54:12;;;;;;;0.00;0.00;;;;;14.90;99894.00;;;;4873295;29;20045;-75
2021/12/11 06:56:42;;;;;;;0.00;0.00;;;;;14.90;99892.00;;;;4872858;29;20130;-74
2021/12/11 06:59:12;;;;;;;0.88;0.20;;;;;15.00;99895.00;;;;4873057;29;20568;-74
2021/12/11 07:01:42;;;;;;;0.00;0.00;;;;;15.00;99889.00;;;;4887017;29;20478;-74
2021/12/11 07:04:13;;;;;;;0.00;0.00;;;;;15.00;99902.00;;;;4873487;29;20048;-74
2021/12/11 07:06:48;;;;;;;0.00;0.00;;;;;15.00;99895.00;;;;4873015;29;20056;-73
2021/12/11 07:09:20;;;;;;;0.00;0.00;;;;;14.90;99876.00;;;;4872955;29;20045;-74
2021/12/11 07:11:52;;;;;;;0.00;0.00;;;;;14.90;99855.00;;;;4873307;29;20041;-73
2021/12/11 07:14:25;;;;;;;0.00;0.00;;;;;14.90;99858.00;;;;4872588;29;20049;-72
2021/12/11 07:16:56;;;;;;;0.00;0.00;;;;;14.80;99869.00;;;;4872899;29;20049;-73
2021/12/11 07:19:25;;;;;;;0.00;0.00;;;;;14.90;99875.00;;;;4872838;29;20052;-74
2021/12/11 07:21:55;;;;;;;0.00;0.00;;;;;14.90;99912.00;;;;4873108;29;20053;-73
2021/12/11 07:24:34;;;;;;;0.00;0.00;;;;;15.00;99903.00;;;;4873086;29;20049;-73
2021/12/11 07:27:08;;;;;;;0.00;0.00;;;;;15.00;99910.00;;;;4872658;29;20133;-73
2021/12/11 07:29:40;;;;;;;0.00;0.00;;;;;15.10;99904.00;;;;4872969;29;20044;-73
2021/12/11 07:32:11;;;;;;;0.00;0.00;;;;;15.00;99923.00;;;;4873062;29;20404;-73
2021/12/11 07:34:41;;;;;;;0.00;0.00;;;;;15.10;99934.00;;;;4872648;29;20136;-73
2021/12/11 07:37:10;;;;;;;0.00;0.00;;;;;14.90;99914.00;;;;4872701;29;20053;-73
2021/12/11 07:39:40;;;;;;;0.00;0.00;;;;;14.90;99931.00;;;;4873126;29;20579;-74
2021/12/11 07:42:09;;;;;;;0.00;0.00;;;;;14.90;99921.00;;;;4871870;29;20073;-74
2021/12/11 07:44:42;;;;;;;0.00;0.00;;;;;14.80;99933.00;;;;4887216;29;20053;-74
2021/12/11 07:47:12;;;;;;;0.00;0.00;;;;;14.70;99904.00;;;;4872767;29;20136;-74
2021/12/11 07:49:43;;;;;;;0.10;0.10;;;;;14.70;99900.00;;;;4872369;29;20056;-74
2021/12/11 07:52:13;;;;;;;0.00;0.00;;;;;14.80;99906.00;;;;4871985;29;20133;-74
2021/12/11 07:54:42;;;;;;;1.00;0.73;;;;;14.80;99923.00;;;;4872349;29;20109;-74
2021/12/11 07:57:12;;;;;;;0.00;0.00;;;;;14.80;99917.00;;;;4872640;29;20199;-73
2021/12/11 07:59:41;;;;;;;0.52;0.52;;;;;14.80;99891.00;;;;4874951;29;20474;-73
2021/12/11 08:02:10;;;;;;;0.00;0.00;;;;;14.90;99917.00;;;;4875928;29;20045;-73
2021/12/11 08:04:40;;;;;;;0.00;0.00;;;;;14.80;99938.00;;;;4875940;29;20049;-74
2021/12/11 08:07:09;;;;;;;0.00;0.00;;;;;14.80;99907.00;;;;4876568;29;20081;-73
2021/12/11 08:09:39;;;;;;;0.00;0.00;;;;;14.70;99918.00;;;;4876201;29;20106;-73
2021/12/11 08:12:08;;;;;;;0.00;0.00;;;;;14.60;99933.00;;;;4876725;29;20048;-74
2021/12/11 08:14:38;;;;;;;0.00;0.00;;;;;14.60;99921.00;;;;4876146;29;20055;-74
2021/12/11 08:17:07;;;;;;;0.00;0.00;;;;;14.60;99907.00;;;;4875983;29;20155;-74
2021/12/11 08:19:37;;;;;;;0.00;0.00;;;;;14.60;99884.00;;;;4875830;29;20112;-74
2021/12/11 08:22:12;;;;;;;0.00;0.00;;;;;14.60;99894.00;;;;4876401;29;20057;-73
2021/12/11 08:24:41;;;;;;;0.00;0.00;;;;;14.50;99892.00;;;;4875694;29;20044;-73
2021/12/11 08:27:16;;;;;;;0.00;0.00;;;;;14.50;99889.00;;;;4875246;29;20041;-74
2021/12/11 08:29:48;;;;;;;0.00;0.00;;;;;14.50;99909.00;;;;4875770;29;20053;-74
2021/12/11 08:32:20;;;;;;;0.00;0.00;;;;;14.50;99920.00;;;;4876298;29;20150;-74
2021/12/11 08:34:54;;;;;;;0.00;0.00;;;;;14.50;99882.00;;;;4875454;29;20065;-74
2021/12/11 08:37:24;;;;;;;0.00;0.00;;;;;14.50;99923.00;;;;4875983;29;20041;-74
2021/12/11 08:39:54;;;;;;;0.00;0.00;;;;;14.50;99907.00;;;;4875413;29;20457;-74
2021/12/11 08:42:25;;;;;;;0.00;0.00;;;;;14.50;99928.00;;;;4875509;29;20120;-74
2021/12/11 08:45:05;;;;;;;0.00;0.00;;;;;14.60;99927.00;;;;4875756;29;20129;-74
2021/12/11 08:47:39;;;;;;;0.00;0.00;;;;;14.70;99924.00;;;;4875447;29;20057;-73
2021/12/11 08:50:13;;;;;;;0.10;0.10;;;;;14.70;99892.00;;;;4875044;29;20053;-74
2021/12/11 08:52:45;;;;;;;0.00;0.00;;;;;14.80;99919.00;;;;4875094;29;20041;-73
2021/12/11 08:55:21;;;;;;;0.00;0.00;;;;;14.80;99933.00;;;;4875008;29;20060;-73
2021/12/11 08:57:53;;;;;;;0.00;0.00;;;;;14.80;99937.00;;;;4889824;29;20468;-73
2021/12/11 09:00:37;;;;;;;0.00;0.00;;;;;14.90;99942.00;;;;4875251;29;20521;-73
2021/12/11 09:03:38;;;;;;;0.00;0.00;;;;;14.90;99949.00;;;;4876660;29;20096;-74
2021/12/11 09:06:23;;;;;;;0.00;0.00;;;;;14.90;99949.00;;;;4868756;29;20132;-74
2021/12/11 09:08:59;;;;;;;0.00;0.00;;;;;14.90;99949.00;;;;4875240;29;20128;-74
2021/12/11 09:11:41;;;;;;;0.00;0.00;;;;;14.80;99935.00;;;;4873705;29;20049;-74
2021/12/11 09:14:36;;;;;;;0.00;0.00;;;;;14.80;99949.00;;;;4874917;29;20076;-74
2021/12/11 09:17:25;;;;;;;0.00;0.00;;;;;14.80;99942.00;;;;4871891;29;20147;-73
2021/12/11 09:19:57;;;;;;;0.10;0.10;;;;;15.00;99960.00;;;;4875133;29;20067;-74
2021/12/11 09:22:32;;;;;;;0.00;0.00;;;;;15.20;99920.00;;;;4888901;29;20056;-73
2021/12/11 09:25:36;;;;;;;0.00;0.00;;;;;15.40;99919.00;;;;4875375;29;20059;-74
2021/12/11 09:28:18;;;;;;;0.00;0.00;;;;;15.50;99875.00;;;;4875149;29;20124;-74
2021/12/11 09:31:01;;;;;;;0.00;0.00;;;;;16.50;99912.00;;;;4874495;29;20045;-74
2021/12/11 09:33:39;;;;;;;0.00;0.00;;;;;16.40;99928.00;;;;4873961;29;20065;-74
2021/12/11 09:36:22;;;;;;;0.00;0.00;;;;;16.60;99918.00;;;;4874574;29;20116;-74
2021/12/11 09:39:00;;;;;;;0.00;0.00;;;;;16.80;99954.00;;;;4874454;29;20052;-74
2021/12/11 09:41:29;;;;;;;0.00;0.00;;;;;17.10;99944.00;;;;4874558;29;20051;-74
2021/12/11 09:44:12;;;;;;;0.00;0.00;;;;;17.60;99953.00;;;;4873904;29;20101;-74
2021/12/11 09:46:47;;;;;;;6.82;1.38;;;;;17.50;99915.00;;;;4888245;29;20601;-74
2021/12/11 09:49:21;;;;;;;0.00;0.00;;;;;17.60;99944.00;;;;4874749;29;20076;-74
2021/12/11 09:52:00;;;;;;;0.00;0.00;;;;;17.60;99952.00;;;;4874359;29;20059;-74
2021/12/11 09:54:34;;;;;;;0.00;0.00;;;;;17.80;99936.00;;;;4874203;29;20131;-75
2021/12/11 09:57:09;;;;;;;0.00;0.00;;;;;17.70;99951.00;;;;4873867;29;20045;-74
2021/12/11 09:59:39;;;;;;;0.00;0.00;;;;;17.60;99962.00;;;;4874131;29;20136;-74
2021/12/11 10:02:15;;;;;;;0.00;0.00;;;;;17.60;99941.00;;;;4871957;29;20037;-74
2021/12/11 10:05:35;;;;;;;0.00;0.00;;;;;17.70;99963.00;;;;4873702;29;20060;-74
2021/12/11 10:11:11;;;;;;;0.00;0.00;;;;;18.20;99930.00;;;;4872658;29;20045;-74
2021/12/11 10:13:45;;;;;;;0.10;0.10;;;;;18.40;99936.00;;;;4873592;29;20073;-73
2021/12/11 10:16:17;;;;;;;0.00;0.00;;;;;19.70;99903.00;;;;4874276;29;20052;-73
2021/12/11 10:18:48;;;;;;;0.00;0.00;;;;;18.70;99956.00;;;;4888072;29;20113;-73
2021/12/11 10:21:26;;;;;;;0.00;0.00;;;;;18.40;99960.00;;;;4873694;29;20040;-74
2021/12/11 10:24:00;;;;;;;0.00;0.00;;;;;18.20;99948.00;;;;4886873;29;20081;-74
2021/12/11 10:26:30;;;;;;;0.00;0.00;;;;;18.60;99921.00;;;;4873636;29;20045;-74
2021/12/11 10:29:02;;;;;;;0.00;0.00;;;;;19.00;99933.00;;;;4873506;29;20044;-74
2021/12/11 10:31:44;;;;;;;0.00;0.00;;;;;19.20;99934.00;;;;4873443;29;20069;-74
2021/12/11 10:34:17;;;;;;;0.00;0.00;;;;;20.00;99911.00;;;;4887431;29;20071;-75
2021/12/11 10:36:58;;;;;;;0.05;0.05;;;;;19.50;99928.00;;;;4872422;29;20052;-74
2021/12/11 10:39:28;;;;;;;0.00;0.00;;;;;19.50;99946.00;;;;4873578;29;20045;-74
2021/12/11 10:41:58;;;;;;;0.10;0.00;;;;;19.70;99928.00;;;;4873590;29;20053;-73
2021/12/11 10:44:32;;;;;;;0.00;0.00;;;;;19.80;99949.00;;;;4872421;29;20140;-74
2021/12/11 10:47:11;;;;;;;0.32;0.32;;;;;19.80;99938.00;;;;4873031;29;20104;-74
2021/12/11 10:49:43;;;;;;;0.00;0.00;;;;;20.00;99956.00;;;;4873667;29;20052;-74
2021/12/11 10:52:24;;;;;;;0.15;0.15;;;;;20.50;99950.00;;;;4873175;29;20100;-73
2021/12/11 10:55:00;;;;;;;0.00;0.00;;;;;21.10;99916.00;;;;4873327;29;20131;-74
2021/12/11 10:57:31;;;;;;;0.00;0.00;;;;;24.40;99782.00;;;;4872390;29;20049;-74
2021/12/11 11:00:04;;;;;;;0.43;0.10;;;;;29.70;99732.00;;;;4873381;29;20052;-72
2021/12/11 11:02:33;;;;;;;0.00;0.00;;;;;26.60;99869.00;;;;4873188;29;20293;-73
2021/12/11 11:05:10;;;;;;;0.00;0.00;;;;;25.50;99801.00;;;;4872716;29;20052;-72
2021/12/11 11:07:39;;;;;;;0.80;0.80;;;;;30.10;99710.00;;;;4872796;29;20057;-74
2021/12/11 11:10:15;;;;;;;0.00;0.00;;;;;29.00;99817.00;;;;4872735;29;20056;-73
2021/12/11 11:12:47;;;;;;;0.00;0.00;;;;;25.40;99883.00;;;;4872739;29;20097;-74
2021/12/11 11:15:21;;;;;;;0.00;0.00;;;;;28.50;99735.00;;;;4872475;29;20525;-73
2021/12/11 11:17:51;;;;;;;2.30;0.38;;;;;30.40;99728.00;;;;4872527;29;20525;-73
2021/12/11 11:20:26;;;;;;;0.35;0.00;;;;;30.60;99734.00;;;;4872406;29;20059;-73
2021/12/11 11:22:57;;;;;;;0.00;0.00;;;;;31.00;99730.00;;;;4872577;29;20129;-74
2021/12/11 11:25:30;;;;;;;0.10;0.10;;;;;30.70;99730.00;;;;4886642;29;20080;-73
2021/12/11 11:28:05;;;;;;;0.00;0.00;;;;;30.20;99728.00;;;;4872563;29;20045;-73
2021/12/11 11:30:40;;;;;;;0.20;0.20;;;;;30.20;99795.00;;;;4871457;29;20045;-73
2021/12/11 11:33:15;;;;;;;0.17;0.15;;;;;29.50;99745.00;;;;4872522;29;20037;-74
2021/12/11 11:35:47;;;;;;;0.30;0.30;;;;;29.60;99713.00;;;;4876408;29;20041;-73
2021/12/11 11:38:27;;;;;;;0.73;0.55;;;;;29.10;99724.00;;;;4876060;29;20045;-73
2021/12/11 11:41:02;;;;;;;0.00;0.00;;;;;28.60;99729.00;;;;4876171;29;20045;-74
2021/12/11 11:43:32;;;;;;;0.05;0.00;;;;;28.40;99734.00;;;;4875690;29;20830;-72
2021/12/11 11:46:02;;;;;;;0.00;0.00;;;;;28.20;99745.00;;;;4875798;29;20391;-75
2021/12/11 11:48:33;;;;;;;0.00;0.00;;;;;27.90;99740.00;;;;4875407;29;20143;-77
2021/12/11 11:51:35;;;;;;;0.00;0.00;;;;;28.10;99784.00;;;;4875273;29;20525;-74
2021/12/11 11:54:08;;;;;;;0.05;0.05;;;;;27.10;99795.00;;;;4875570;29;20113;-74
2021/12/11 11:56:42;;;;;;;0.00;0.00;;;;;27.20;99856.00;;;;4876042;29;20445;-75
2021/12/11 11:59:12;;;;;;;0.75;0.10;;;;;26.90;99867.00;;;;4873993;29;20131;-75
2021/12/11 12:01:53;;;;;;;0.00;0.00;;;;;26.90;99862.00;;;;4876274;29;20493;-75
2021/12/11 12:04:23;;;;;;;0.43;0.43;;;;;26.60;99853.00;;;;4875257;29;20049;-76
2021/12/11 12:06:56;;;;;;;0.00;0.00;;;;;26.40;99871.00;;;;4874543;29;20497;-75
2021/12/11 12:09:33;;;;;;;0.08;0.08;;;;;26.90;99860.00;;;;4874545;29;20586;-74
2021/12/11 12:12:05;;;;;;;0.00;0.00;;;;;27.40;99861.00;;;;4875213;29;20076;-75
2021/12/11 12:14:35;;;;;;;0.00;0.00;;;;;27.20;99855.00;;;;4875002;29;20120;-75
2021/12/11 12:17:06;;;;;;;;;;;;;27.60;99845.00;;;;4874655;29;20048;-74
2021/12/11 12:19:38;;;;;;;0.00;0.00;;;;;28.00;99829.00;;;;4873785;29;20442;-74
2021/12/11 12:22:11;;;;;;;0.00;0.00;;;;;27.90;99846.00;;;;4875384;29;20048;-75
2021/12/11 12:24:43;;;;;;;0.00;0.00;;;;;27.60;99843.00;;;;4874905;29;20097;-74
2021/12/11 12:27:17;;;;;;;0.10;0.10;;;;;27.70;99850.00;;;;4875262;29;20494;-75
2021/12/11 12:29:47;;;;;;;0.00;0.00;;;;;27.70;99851.00;;;;4875659;29;20147;-76
2021/12/11 12:32:26;;;;;;;0.00;0.00;;;;;27.30;99868.00;;;;4875062;29;20073;-73
2021/12/11 12:35:00;;;;;;;1.88;0.03;;;;;27.20;99865.00;;;;4875283;29;20065;-75
2021/12/11 12:37:30;;;;;;;3.00;1.20;;;;;27.10;99854.00;;;;4874894;29;20128;-74
2021/12/11 12:40:05;;;;;;;0.45;0.45;;;;;27.40;99846.00;;;;4874997;29;20101;-73
2021/12/11 12:42:41;;;;;;;0.00;0.00;;;;;27.80;99854.00;;;;4875338;29;20061;-74
2021/12/11 12:45:26;;;;;;;1.38;0.88;;;;;27.40;99874.00;;;;4874197;29;20580;-73
2021/12/11 12:48:04;;;;;;;0.30;0.25;;;;;26.90;99852.00;;;;4875043;29;20053;-73
2021/12/11 12:50:42;;;;;;;0.00;0.00;;;;;27.00;99867.00;;;;4874850;29;20045;-75
2021/12/11 12:53:13;;;;;;;2.95;0.43;;;;;26.60;99854.00;;;;4874179;29;20041;-75
2021/12/11 12:55:51;;;;;;;0.90;0.57;;;;;26.50;99861.00;;;;4875012;29;20109;-75
2021/12/11 12:58:44;;;;;;;0.75;0.28;;;;;26.50;99860.00;;;;4875628;29;20068;-74
2021/12/11 13:01:21;;;;;;;0.00;0.00;;;;;26.60;99833.00;;;;4875136;29;20132;-74
2021/12/11 13:04:01;;;;;;;0.10;0.10;;;;;27.80;99774.00;;;;4875280;29;20052;-74
2021/12/11 13:06:37;;;;;;;0.13;0.13;;;;;28.60;99841.00;;;;4874248;29;20040;-74
2021/12/11 13:09:27;;;;;;;4.68;1.75;;;;;27.80;99843.00;;;;4875008;29;20509;-74
2021/12/11 13:12:02;;;;;;;0.38;0.30;;;;;27.40;99833.00;;;;4874948;29;20049;-75